Time;durP1;ratioP1;P1;durP2;ratioP2;P2;SDS_P1;SDS_P2;PMS_P1;PMS_P2;Temp;Humidity;BMP_temperature;BMP_pressure;BME280_temperature;BME280_humidity;BME280_pressure;Samples;Min_cycle;Max_cycle;Signal;HPM_P1;HPM_P2
2022/06/30 00:00:59;;;;;;;11.07;3.92;;;;;;;27.50;42.87;99354.00;4455892;32;31822;-78
2022/06/30 00:03:27;;;;;;;7.78;3.75;;;;;;;27.47;42.92;99347.03;4455807;32;34573;-78
2022/06/30 00:06:00;;;;;;;7.43;3.78;;;;;;;27.34;43.28;99350.00;4468534;32;35303;-77
2022/06/30 00:08:31;;;;;;;7.18;3.80;;;;;;;27.34;43.29;99350.00;4468884;32;33909;-77
2022/06/30 00:11:10;;;;;;;15.13;4.05;;;;;;;27.32;43.38;99352.31;4468522;32;33641;-78
2022/06/30 00:13:44;;;;;;;6.90;4.05;;;;;;;27.29;43.45;99350.16;4467853;32;34350;-77
2022/06/30 00:16:12;;;;;;;8.88;3.60;;;;;;;27.32;42.98;99355.13;4455608;32;32979;-77
2022/06/30 00:18:44;;;;;;;8.65;4.07;;;;;;;27.32;42.37;99355.94;4469970;32;33964;-77
2022/06/30 00:21:14;;;;;;;9.52;4.00;;;;;;;27.25;42.47;99355.63;4468462;32;33239;-77
2022/06/30 00:23:47;;;;;;;12.40;4.18;;;;;;;27.21;42.75;99361.09;4468710;32;33841;-77
2022/06/30 00:26:17;;;;;;;7.07;3.60;;;;;;;27.11;42.84;99358.56;4468044;32;34390;-77
2022/06/30 00:28:46;;;;;;;7.00;3.60;;;;;;;27.05;43.06;99359.03;4469881;32;34604;-77
2022/06/30 00:31:17;;;;;;;6.60;3.97;;;;;;;27.07;43.17;99363.19;4469217;32;33211;-77
2022/06/30 00:33:45;;;;;;;10.75;3.72;;;;;;;26.98;43.49;99359.50;4470405;32;34204;-77
2022/06/30 00:36:21;;;;;;;8.85;3.60;;;;;;;26.88;43.85;99362.59;4471408;32;34645;-77
2022/06/30 00:38:54;;;;;;;8.02;3.67;;;;;;;26.96;43.64;99363.78;4470180;32;34081;-77
2022/06/30 00:41:21;;;;;;;8.30;3.87;;;;;;;26.87;43.78;99363.75;4470114;32;33373;-77
2022/06/30 00:43:52;;;;;;;8.80;3.95;;;;;;;26.90;43.52;99363.09;4471419;32;32679;-77
2022/06/30 00:46:22;;;;;;;9.45;4.03;;;;;;;26.64;44.22;99354.53;4469821;32;34302;-77
2022/06/30 00:48:50;;;;;;;8.00;3.58;;;;;;;26.75;43.85;99355.91;4457328;32;33915;-77
2022/06/30 00:51:23;;;;;;;8.20;3.87;;;;;;;26.76;43.90;99356.72;4470062;32;34114;-78
2022/06/30 00:53:56;;;;;;;7.70;3.87;;;;;;;26.82;43.89;99361.06;4456926;32;32594;-77
2022/06/30 00:56:26;;;;;;;6.97;3.90;;;;;;;26.70;44.18;99355.22;4470119;32;35327;-77
2022/06/30 00:59:04;;;;;;;5.18;3.55;;;;;;;26.68;44.27;99355.53;4457342;32;32538;-77
2022/06/30 01:01:32;;;;;;;8.73;3.78;;;;;;;26.69;44.16;99356.34;4471037;32;34067;-77
2022/06/30 01:04:04;;;;;;;6.70;3.80;;;;;;;26.64;44.23;99353.72;4444184;32;32876;-77
2022/06/30 01:06:34;;;;;;;8.75;3.85;;;;;;;26.63;44.41;99354.88;4444587;32;33815;-77
2022/06/30 01:09:05;;;;;;;7.28;4.28;;;;;;;26.77;43.93;99352.75;4457137;32;33888;-77
2022/06/30 01:14:22;;;;;;;8.02;4.00;;;;;;;26.62;44.05;99353.22;4470038;32;34438;-78
2022/06/30 01:16:52;;;;;;;8.32;4.10;;;;;;;26.57;44.29;99355.00;4471039;32;35039;-77
2022/06/30 01:19:22;;;;;;;6.60;3.80;;;;;;;26.38;44.92;99348.75;4469984;32;33953;-77
2022/06/30 01:22:01;;;;;;;8.02;4.00;;;;;;;26.37;45.09;99349.09;4469953;32;33995;-77
2022/06/30 01:24:29;;;;;;;9.63;3.60;;;;;;;26.52;44.55;99357.97;4471054;32;33483;-77
2022/06/30 01:27:00;;;;;;;8.02;4.00;;;;;;;26.31;45.24;99353.16;4471006;32;34320;-78
2022/06/30 01:29:36;;;;;;;7.45;3.47;;;;;;;26.25;45.24;99363.69;4469770;32;33733;-77
2022/06/30 01:32:10;;;;;;;7.05;3.83;;;;;;;26.29;45.06;99352.63;4469599;32;33904;-77
2022/06/30 01:34:38;;;;;;;8.25;4.03;;;;;;;26.20;45.25;99359.03;4444380;32;34036;-77
2022/06/30 01:37:12;;;;;;;5.95;3.50;;;;;;;26.12;45.39;99359.81;4470044;32;34394;-77
2022/06/30 01:39:40;;;;;;;6.18;3.50;;;;;;;26.09;45.31;99366.06;4469761;32;32999;-77
2022/06/30 01:42:11;;;;;;;10.68;4.28;;;;;;;26.10;45.23;99355.66;4470935;32;33777;-77
2022/06/30 01:44:41;;;;;;;8.98;3.97;;;;;;;26.10;45.00;99355.66;4444354;32;34092;-77
2022/06/30 01:47:09;;;;;;;9.45;4.15;;;;;;;26.25;44.39;99363.69;4469807;32;34587;-77
2022/06/30 01:49:41;;;;;;;7.62;4.30;;;;;;;26.12;44.42;99368.25;4469638;32;33223;-77
2022/06/30 01:52:11;;;;;;;9.57;4.20;;;;;;;25.91;45.20;99376.37;4469577;32;34224;-77
2022/06/30 01:54:49;;;;;;;9.00;3.97;;;;;;;25.96;45.37;99374.59;4470862;32;34568;-77
2022/06/30 01:57:20;;;;;;;9.80;3.65;;;;;;;25.85;45.60;99371.19;4470340;32;35113;-77
2022/06/30 01:59:50;;;;;;;8.63;3.72;;;;;;;25.78;45.64;99374.44;4469465;32;33027;-77
2022/06/30 02:02:18;;;;;;;10.80;4.10;;;;;;;25.81;45.54;99373.81;4469608;32;33253;-77
2022/06/30 02:04:53;;;;;;;6.60;3.70;;;;;;;25.80;45.67;99383.37;4470660;32;34076;-76
2022/06/30 02:07:23;;;;;;;9.38;3.75;;;;;;;25.66;45.89;99376.13;4469270;32;34314;-77
2022/06/30 02:09:51;;;;;;;10.15;4.15;;;;;;;25.65;45.93;99386.53;4469701;32;34106;-77
2022/06/30 02:15:09;;;;;;;7.12;4.53;;;;;;;25.57;46.02;99387.25;4458672;32;32545;-77
2022/06/30 02:17:39;;;;;;;6.43;3.78;;;;;;;25.58;45.92;99386.94;4469349;32;35111;-77
2022/06/30 02:20:09;;;;;;;6.53;3.80;;;;;;;25.69;45.71;99386.75;4456744;32;33898;-77
2022/06/30 02:22:43;;;;;;;6.57;4.22;;;;;;;25.68;45.59;99388.72;4456740;32;31805;-77
2022/06/30 02:25:11;;;;;;;6.47;3.50;;;;;;;25.56;45.66;99385.59;4470540;32;34016;-77
2022/06/30 02:27:39;;;;;;;8.07;3.87;;;;;;;25.54;45.51;99387.88;4456579;32;33901;-77
2022/06/30 02:30:11;;;;;;;7.53;4.28;;;;;;;25.62;45.36;99378.72;4469147;32;34177;-77
2022/06/30 02:32:44;;;;;;;8.57;4.60;;;;;;;25.55;45.56;99381.13;4469222;32;33507;-77
2022/06/30 02:35:21;;;;;;;7.55;4.22;;;;;;;25.44;45.72;99386.13;4469605;32;33759;-77
2022/06/30 02:37:57;;;;;;;6.93;3.95;;;;;;;25.40;45.78;99387.06;4456683;32;33086;-77
2022/06/30 02:40:25;;;;;;;6.93;3.83;;;;;;;25.27;45.79;99381.19;4469432;32;33879;-77
2022/06/30 02:43:01;;;;;;;8.90;4.50;;;;;;;25.49;45.52;99377.59;4457129;32;33445;-77
2022/06/30 02:45:32;;;;;;;8.18;4.00;;;;;;;25.43;45.56;99378.00;4469168;32;31796;-77
2022/06/30 02:48:06;;;;;;;6.75;4.10;;;;;;;25.31;45.82;99378.56;4469169;32;32985;-77
2022/06/30 02:50:36;;;;;;;7.45;3.90;;;;;;;25.28;45.92;99377.22;4469234;32;34265;-77
2022/06/30 02:53:06;;;;;;;6.87;4.00;;;;;;;25.23;46.16;99382.13;4469854;32;33245;-77
2022/06/30 02:55:36;;;;;;;7.97;4.20;;;;;;;25.16;46.24;99379.72;4470608;32;33664;-76
2022/06/30 02:58:04;;;;;;;9.30;4.47;;;;;;;25.10;46.39;99378.16;4469201;32;34535;-76
2022/06/30 03:00:37;;;;;;;9.05;4.68;;;;;;;25.16;46.31;99371.31;4469440;32;34678;-76
2022/06/30 03:03:07;;;;;;;8.15;4.10;;;;;;;25.32;45.98;99374.63;4469359;32;34118;-77
2022/06/30 03:05:35;;;;;;;6.93;3.87;;;;;;;25.08;46.52;99372.03;4469188;32;33938;-77
2022/06/30 03:08:05;;;;;;;6.75;4.18;;;;;;;25.20;46.30;99377.97;4470199;32;35439;-77
2022/06/30 03:10:32;;;;;;;6.00;3.85;;;;;;;25.08;46.93;99385.25;4470342;32;34047;-77
2022/06/30 03:13:05;;;;;;;6.85;3.70;;;;;;;25.09;46.84;99384.09;4469294;32;32940;-77
2022/06/30 03:15:35;;;;;;;10.27;4.25;;;;;;;25.02;47.01;99400.53;4469113;32;33786;-77
2022/06/30 03:18:03;;;;;;;7.80;4.37;;;;;;;25.14;46.79;99398.87;4468927;32;33400;-77
2022/06/30 03:20:31;;;;;;;10.00;4.20;;;;;;;25.02;47.16;99401.34;4470258;32;33667;-77
2022/06/30 03:22:58;;;;;;;6.22;4.18;;;;;;;24.97;47.34;99401.47;4470269;32;33324;-77
2022/06/30 03:25:29;;;;;;;9.82;4.40;;;;;;;24.95;47.47;99414.94;4468915;32;34244;-77
2022/06/30 03:28:04;;;;;;;6.82;4.28;;;;;;;25.00;47.33;99400.84;4456181;32;34109;-77
2022/06/30 03:30:34;;;;;;;5.72;4.12;;;;;;;24.95;47.41;99410.16;4467997;32;32549;-76
2022/06/30 03:33:02;;;;;;;8.05;4.70;;;;;;;24.96;47.68;99413.84;4470193;32;33350;-77
2022/06/30 03:35:32;;;;;;;8.23;4.53;;;;;;;24.92;47.77;99412.75;4470145;32;33680;-77
2022/06/30 03:38:04;;;;;;;6.65;4.12;;;;;;;24.90;48.07;99415.03;4468911;32;34306;-77
2022/06/30 03:40:34;;;;;;;6.50;4.25;;;;;;;25.00;47.50;99417.69;4469051;32;34130;-77
2022/06/30 03:43:03;;;;;;;9.40;4.28;;;;;;;25.06;47.42;99422.06;4469266;32;33121;-76
2022/06/30 03:45:31;;;;;;;8.48;4.35;;;;;;;24.97;47.80;99421.13;4456140;32;32353;-77
2022/06/30 03:48:06;;;;;;;6.20;4.05;;;;;;;25.03;47.79;99419.88;4468971;32;34364;-77
2022/06/30 03:50:37;;;;;;;6.80;4.25;;;;;;;25.08;47.76;99418.94;4456434;32;33504;-77
2022/06/30 03:53:07;;;;;;;7.10;4.43;;;;;;;25.11;47.88;99424.78;4469976;32;33362;-76
2022/06/30 03:55:39;;;;;;;7.85;4.22;;;;;;;25.03;48.17;99428.28;4470014;32;33732;-77
2022/06/30 03:58:09;;;;;;;8.18;4.47;;;;;;;25.04;48.62;99438.38;4470267;32;34564;-76
2022/06/30 04:00:39;;;;;;;6.35;4.15;;;;;;;25.10;48.31;99439.94;4466459;32;34808;-76
2022/06/30 04:03:12;;;;;;;9.77;4.22;;;;;;;25.07;48.52;99434.12;4472294;32;33511;-76
2022/06/30 04:05:42;;;;;;;7.87;4.15;;;;;;;25.20;48.25;99433.31;4470743;32;32237;-76
2022/06/30 04:08:12;;;;;;;6.82;3.85;;;;;;;25.16;48.53;99438.72;4473052;32;34429;-76
2022/06/30 04:10:40;;;;;;;6.80;4.40;;;;;;;25.25;47.85;99445.28;4472663;32;34983;-77
2022/06/30 04:13:07;;;;;;;9.23;4.40;;;;;;;25.24;47.69;99440.78;4468878;32;34080;-77
2022/06/30 04:18:26;;;;;;;6.37;3.90;;;;;;;25.34;47.78;99438.94;4457034;32;32966;-77
2022/06/30 04:21:00;;;;;;;7.20;3.75;;;;;;;25.29;47.97;99431.44;4468575;32;34649;-77
2022/06/30 04:23:33;;;;;;;10.48;3.87;;;;;;;25.31;48.06;99419.88;4469705;32;33139;-77
2022/06/30 04:26:03;;;;;;;5.43;3.80;;;;;;;25.49;47.35;99421.72;4468427;32;33940;-77
2022/06/30 04:28:34;;;;;;;8.02;4.28;;;;;;;25.40;47.61;99418.81;4455831;32;34405;-77
2022/06/30 04:33:48;;;;;;;8.70;4.07;;;;;;;25.46;47.62;99422.34;4468366;32;31862;-77
2022/06/30 04:36:20;;;;;;;10.05;4.20;;;;;;;25.51;47.75;99425.03;4469487;32;34755;-77
2022/06/30 04:38:53;;;;;;;9.82;3.95;;;;;;;25.50;48.16;99437.44;4468407;32;34467;-77
2022/06/30 04:41:33;;;;;;;7.68;4.78;;;;;;;25.62;48.07;99446.16;4469043;32;33773;-77
2022/06/30 04:44:06;;;;;;;14.15;5.05;;;;;;;25.60;48.37;99431.59;4467712;32;31663;-76
2022/06/30 04:46:37;;;;;;;9.23;4.75;;;;;;;25.78;48.17;99438.25;4469083;32;34610;-77
2022/06/30 04:49:05;;;;;;;10.23;5.47;;;;;;;25.79;48.39;99432.31;4455129;32;34378;-77
2022/06/30 04:51:38;;;;;;;7.47;4.65;;;;;;;25.88;48.34;99438.03;4468047;32;34861;-77
2022/06/30 04:54:11;;;;;;;6.93;4.28;;;;;;;25.91;48.72;99431.78;4455099;32;33170;-77
2022/06/30 04:56:40;;;;;;;10.60;4.90;;;;;;;26.00;48.86;99424.22;4468037;32;34514;-77
2022/06/30 04:59:13;;;;;;;12.32;4.93;;;;;;;26.06;49.20;99436.19;4468744;32;35208;-77
2022/06/30 05:01:47;;;;;;;8.68;5.10;;;;;;;26.10;49.42;99425.97;4454961;32;32404;-77
2022/06/30 05:04:18;;;;;;;9.98;5.10;;;;;;;26.22;48.58;99431.88;4467873;32;31963;-77
2022/06/30 05:06:48;;;;;;;8.55;4.68;;;;;;;26.35;47.93;99433.00;4455014;32;33664;-77
2022/06/30 05:09:19;;;;;;;9.60;5.10;;;;;;;26.35;47.64;99428.19;4467784;32;34390;-77
2022/06/30 05:11:50;;;;;;;10.40;5.00;;;;;;;26.41;47.64;99428.91;4467494;32;32601;-77
2022/06/30 05:14:18;;;;;;;10.73;4.93;;;;;;;26.49;47.98;99423.34;4454496;32;31894;-78
2022/06/30 05:16:49;;;;;;;10.68;4.93;;;;;;;26.61;48.39;99422.75;4468274;32;34121;-77
2022/06/30 05:19:19;;;;;;;10.68;4.80;;;;;;;26.72;48.35;99428.91;4471112;32;35237;-77
2022/06/30 05:21:52;;;;;;;10.23;5.12;;;;;;;26.82;48.49;99426.66;4457141;32;33919;-77
2022/06/30 05:27:15;;;;;;;7.57;4.78;;;;;;;27.03;47.16;99431.78;4470032;32;33895;-77
2022/06/30 05:29:45;;;;;;;12.65;6.15;;;;;;;27.10;46.33;99432.97;4470158;32;34766;-77
2022/06/30 05:32:15;;;;;;;7.75;4.60;;;;;;;27.17;46.54;99427.69;4471011;32;34596;-76
2022/06/30 05:34:43;;;;;;;7.75;4.32;;;;;;;27.28;46.52;99425.44;4469855;32;32400;-76
2022/06/30 05:37:14;;;;;;;7.45;4.03;;;;;;;27.33;44.69;99433.69;4469291;32;34170;-77
2022/06/30 05:39:47;;;;;;;8.40;3.70;;;;;;;27.45;43.32;99427.44;4469766;32;35244;-77
2022/06/30 05:42:18;;;;;;;9.15;4.07;;;;;;;27.60;42.90;99423.38;4470660;32;34494;-76
2022/06/30 05:44:49;;;;;;;9.32;4.18;;;;;;;27.61;41.22;99423.03;4470598;32;33270;-77
2022/06/30 05:47:16;;;;;;;7.22;3.90;;;;;;;27.71;41.43;99427.53;4469213;32;33815;-78
2022/06/30 05:49:47;;;;;;;7.80;3.35;;;;;;;27.85;41.81;99429.06;4440434;32;33614;-78
2022/06/30 05:52:18;;;;;;;8.73;3.33;;;;;;;27.96;39.15;99426.72;4456876;32;34819;-77
2022/06/30 05:54:48;;;;;;;6.68;3.22;;;;;;;28.03;38.70;99427.06;4470464;32;34191;-77
2022/06/30 05:57:22;;;;;;;7.75;3.85;;;;;;;28.17;38.48;99415.63;4456854;32;33699;-76
2022/06/30 05:59:55;;;;;;;7.07;3.90;;;;;;;28.22;39.07;99418.31;4469687;32;34433;-77
2022/06/30 06:02:25;;;;;;;7.55;3.28;;;;;;;28.21;39.71;99419.44;4456877;32;34211;-77
2022/06/30 06:04:53;;;;;;;5.80;3.47;;;;;;;28.24;37.84;99424.44;4456859;32;33840;-78
2022/06/30 06:07:24;;;;;;;9.68;3.55;;;;;;;28.42;35.56;99420.47;4457156;32;33930;-78
2022/06/30 06:09:51;;;;;;;6.28;3.30;;;;;;;28.52;34.46;99425.75;4456745;32;35019;-78
2022/06/30 06:12:22;;;;;;;8.15;3.50;;;;;;;28.73;35.83;99425.84;4456743;32;33937;-78
2022/06/30 06:14:53;;;;;;;10.55;3.62;;;;;;;28.69;34.74;99429.69;4457161;32;33227;-78
2022/06/30 06:17:24;;;;;;;6.05;3.20;;;;;;;28.67;35.33;99427.19;4444294;32;34764;-78
2022/06/30 06:19:51;;;;;;;7.65;3.42;;;;;;;28.94;35.13;99414.72;4431176;32;33734;-75
2022/06/30 06:22:24;;;;;;;8.02;3.53;;;;;;;29.10;35.06;99424.28;4456587;32;34552;-76
2022/06/30 06:24:54;;;;;;;14.27;3.80;;;;;;;28.96;33.21;99426.50;4456491;32;31643;-77
2022/06/30 06:27:33;;;;;;;6.85;3.40;;;;;;;29.22;33.74;99428.41;4456547;32;33957;-77
2022/06/30 06:30:08;;;;;;;5.97;3.25;;;;;;;29.40;33.55;99422.31;4462847;32;34508;-77
2022/06/30 06:32:53;;;;;;;12.95;3.45;;;;;;;29.54;32.71;99424.94;4456827;32;33968;-77
2022/06/30 06:35:57;;;;;;;5.82;3.50;;;;;;;29.34;31.58;99434.97;4456177;32;32872;-78
2022/06/30 06:38:49;;;;;;;7.47;3.53;;;;;;;29.55;32.06;99418.09;4457021;32;34602;-78
2022/06/30 06:41:36;;;;;;;10.18;3.67;;;;;;;29.62;32.57;99424.06;4469364;32;34572;-77
2022/06/30 06:44:32;;;;;;;9.32;3.25;;;;;;;29.64;31.86;99418.88;4470343;32;34888;-77
2022/06/30 06:47:26;;;;;;;8.25;3.58;;;;;;;29.69;31.59;99417.84;4457764;32;31681;-77
2022/06/30 06:50:14;;;;;;;6.00;3.45;;;;;;;29.73;31.62;99422.47;4456029;32;33320;-76
2022/06/30 06:53:09;;;;;;;6.25;3.55;;;;;;;29.80;30.89;99419.94;4469016;32;33117;-78
2022/06/30 06:56:00;;;;;;;5.15;3.05;;;;;;;29.99;31.33;99419.44;4470195;32;34004;-77
2022/06/30 06:59:00;;;;;;;7.37;3.87;;;;;;;29.92;31.44;99409.84;4456586;32;33594;-77
2022/06/30 07:01:59;;;;;;;6.47;3.17;;;;;;;30.24;30.32;99414.78;4470271;32;33920;-76
2022/06/30 07:05:15;;;;;;;7.95;3.05;;;;;;;30.36;31.12;99414.84;4470084;32;34610;-75
2022/06/30 07:08:16;;;;;;;6.75;3.20;;;;;;;30.29;31.07;99411.75;4470177;32;33898;-82
2022/06/30 07:11:11;;;;;;;5.32;3.08;;;;;;;30.55;31.17;99405.00;4438355;32;31849;-83
2022/06/30 07:14:10;;;;;;;11.45;3.58;;;;;;;30.46;31.34;99414.41;4432232;32;33693;-82
2022/06/30 07:17:13;;;;;;;8.75;3.92;;;;;;;30.62;30.81;99411.75;4433423;32;34293;-82
2022/06/30 07:20:02;;;;;;;6.55;3.45;;;;;;;30.75;31.09;99413.47;4419338;32;33407;-82
2022/06/30 07:22:52;;;;;;;7.12;3.67;;;;;;;30.70;29.74;99416.53;4422726;32;32350;-82
2022/06/30 07:26:01;;;;;;;9.95;3.60;;;;;;;30.95;30.78;99406.06;4460751;32;34340;-81
2022/06/30 07:28:42;;;;;;;7.90;3.60;;;;;;;30.99;29.97;99395.69;4444160;32;34371;-83
2022/06/30 07:31:53;;;;;;;8.27;3.37;;;;;;;30.88;30.75;99405.81;4450463;32;35179;-82
2022/06/30 07:34:37;;;;;;;;;;;;;;;31.04;29.88;99403.12;4449409;32;33822;-82
2022/06/30 07:37:27;;;;;;;6.43;3.60;;;;;;;31.11;30.22;99401.38;4435432;32;34100;-81
2022/06/30 07:40:22;;;;;;;5.18;3.30;;;;;;;31.19;30.02;99401.66;4446492;32;32920;-81
2022/06/30 07:42:55;;;;;;;6.97;3.60;;;;;;;31.61;29.30;99393.72;4446512;32;33960;-81
2022/06/30 07:45:26;;;;;;;10.88;3.40;;;;;;;31.53;29.17;99391.81;4441128;32;32518;-82
2022/06/30 07:47:56;;;;;;;7.00;3.83;;;;;;;31.58;28.92;99392.41;4465044;32;33900;-82
2022/06/30 07:50:29;;;;;;;9.20;3.60;;;;;;;31.40;29.08;99393.84;4427431;32;32668;-82
2022/06/30 07:53:17;;;;;;;8.38;3.47;;;;;;;31.57;29.08;99389.94;4429462;32;33808;-83
2022/06/30 07:56:14;;;;;;;7.68;3.60;;;;;;;31.50;29.21;99387.69;4454672;32;33134;-82
2022/06/30 07:59:08;;;;;;;5.00;3.10;;;;;;;31.67;28.45;99386.63;4441621;32;33114;-81
2022/06/30 08:02:01;;;;;;;7.72;4.18;;;;;;;31.85;29.58;99388.00;4451967;32;34184;-82
2022/06/30 08:04:50;;;;;;;6.18;3.42;;;;;;;32.10;28.80;99380.25;4457056;32;33955;-82
2022/06/30 08:07:46;;;;;;;8.65;3.72;;;;;;;31.97;27.98;99381.47;4453937;32;33551;-82
2022/06/30 08:10:37;;;;;;;6.93;3.60;;;;;;;32.24;28.24;99380.72;4449481;32;33240;-81
2022/06/30 08:13:27;;;;;;;9.50;3.72;;;;;;;32.28;28.37;99384.47;4449533;32;35059;-83
2022/06/30 08:16:17;;;;;;;7.85;3.50;;;;;;;32.21;27.58;99386.25;4455563;32;35230;-81
2022/06/30 08:19:07;;;;;;;8.70;3.47;;;;;;;32.32;27.41;99374.06;4459223;32;33444;-82
2022/06/30 08:22:00;;;;;;;11.23;3.30;;;;;;;32.48;27.36;99374.09;4450593;32;33654;-82
2022/06/30 08:24:52;;;;;;;6.10;3.30;;;;;;;32.41;27.93;99371.06;4461664;32;34925;-82
2022/06/30 08:27:46;;;;;;;9.40;3.47;;;;;;;32.59;27.99;99380.88;4455822;32;34610;-82
2022/06/30 08:30:15;;;;;;;6.47;3.33;;;;;;;32.55;26.76;99381.97;4440662;32;33394;-80
2022/06/30 08:32:44;;;;;;;7.05;3.53;;;;;;;32.78;27.82;99371.69;4440384;32;33658;-81
2022/06/30 08:35:13;;;;;;;7.93;3.70;;;;;;;32.92;27.96;99374.91;4440229;32;33578;-78
2022/06/30 08:38:00;;;;;;;8.38;3.40;;;;;;;32.87;27.68;99380.88;4440020;32;34059;-78
2022/06/30 08:44:03;;;;;;;7.05;3.70;;;;;;;32.90;27.87;99362.25;4461434;32;34247;-82
2022/06/30 08:46:51;;;;;;;10.18;3.60;;;;;;;33.00;27.12;99359.69;4448239;32;33284;-82
2022/06/30 08:49:42;;;;;;;5.43;2.87;;;;;;;33.00;27.20;99356.84;4461339;32;34714;-82
2022/06/30 08:52:32;;;;;;;9.75;3.25;;;;;;;33.17;25.21;99354.81;4446809;32;31745;-82
2022/06/30 08:55:21;;;;;;;9.15;3.45;;;;;;;33.35;25.21;99361.81;4450969;32;32970;-82
2022/06/30 08:58:15;;;;;;;7.70;3.37;;;;;;;33.53;25.95;99360.22;4449352;32;34601;-83
2022/06/30 09:01:07;;;;;;;7.78;4.03;;;;;;;33.44;25.84;99359.59;4449905;32;33998;-83
2022/06/30 09:03:56;;;;;;;7.95;3.22;;;;;;;33.63;25.59;99364.50;4442319;32;31692;-83
2022/06/30 09:06:44;;;;;;;8.82;3.35;;;;;;;33.67;24.74;99357.72;4453096;32;32230;-83
2022/06/30 09:09:36;;;;;;;6.55;3.00;;;;;;;33.65;24.84;99353.59;4463136;32;34451;-83
2022/06/30 09:12:49;;;;;;;8.75;2.97;;;;;;;33.76;23.97;99348.97;4461061;32;33968;-82
2022/06/30 09:15:37;;;;;;;7.03;3.00;;;;;;;33.85;23.68;99351.59;4450207;32;31777;-78
2022/06/30 09:18:39;;;;;;;8.27;3.35;;;;;;;33.42;24.85;99356.28;4469494;32;33653;-79
2022/06/30 09:21:32;;;;;;;16.95;3.92;;;;;;;33.87;24.61;99354.91;4440558;32;34391;-79
2022/06/30 09:24:00;;;;;;;11.95;3.12;;;;;;;34.16;24.39;99356.34;4469175;32;34926;-78
2022/06/30 09:26:40;;;;;;;6.70;2.97;;;;;;;34.13;24.63;99362.78;4446657;32;33373;-83
2022/06/30 09:29:11;;;;;;;9.98;3.53;;;;;;;34.34;22.76;99366.13;4434681;32;32932;-83
2022/06/30 09:32:33;;;;;;;7.50;3.03;;;;;;;34.31;23.65;99356.31;4456343;32;32960;-79
2022/06/30 09:35:13;;;;;;;9.00;2.80;;;;;;;34.55;22.89;99351.44;4449940;32;32286;-81
2022/06/30 09:37:42;;;;;;;4.70;2.40;;;;;;;34.58;22.18;99339.28;4462327;32;33232;-81
2022/06/30 09:40:11;;;;;;;6.40;2.95;;;;;;;34.87;21.59;99355.78;4449235;32;34389;-82
2022/06/30 09:42:41;;;;;;;6.37;2.35;;;;;;;34.90;21.13;99339.94;4462326;32;35397;-82
2022/06/30 09:45:40;;;;;;;6.30;2.60;;;;;;;34.79;21.17;99341.72;4469364;32;34530;-81
2022/06/30 09:48:23;;;;;;;8.75;2.80;;;;;;;35.12;21.47;99341.09;4448114;32;34298;-83
2022/06/30 09:51:48;;;;;;;6.28;2.97;;;;;;;35.17;21.58;99335.06;4458098;32;31843;-83
2022/06/30 09:54:32;;;;;;;8.65;2.95;;;;;;;35.44;21.44;99322.50;4448893;32;34079;-83
2022/06/30 09:57:58;;;;;;;8.82;2.78;;;;;;;35.53;21.60;99322.22;4459733;32;34140;-82
2022/06/30 10:01:15;;;;;;;9.05;2.83;;;;;;;35.72;21.66;99318.44;4461720;32;33285;-82
2022/06/30 10:04:24;;;;;;;4.50;2.25;;;;;;;35.93;21.77;99324.44;4468193;32;33993;-84
2022/06/30 10:07:27;;;;;;;5.72;3.00;;;;;;;35.94;20.42;99321.19;4452434;32;33828;-82
2022/06/30 10:10:17;;;;;;;8.25;2.62;;;;;;;36.07;20.78;99321.75;4463051;32;34219;-82
2022/06/30 10:13:07;;;;;;;7.90;2.80;;;;;;;36.26;20.96;99310.19;4443044;32;32729;-82
2022/06/30 10:16:12;;;;;;;6.70;3.35;;;;;;;36.44;21.01;99323.84;4454570;32;33603;-82
2022/06/30 10:19:48;;;;;;;4.28;2.30;;;;;;;36.66;20.09;99305.72;4450844;32;33894;-82
2022/06/30 10:23:20;;;;;;;9.65;2.92;;;;;;;36.75;19.54;99303.38;4465495;32;34406;-83
2022/06/30 10:29:40;;;;;;;6.03;2.37;;;;;;;37.21;19.84;99302.97;4452325;32;33194;-83
2022/06/30 10:37:01;;;;;;;6.45;2.33;;;;;;;37.23;18.75;99306.25;4423160;32;33946;-82
2022/06/30 10:40:24;;;;;;;;;;;;;;;37.31;17.83;99301.41;4419175;32;33607;-82
2022/06/30 10:43:03;;;;;;;4.40;2.20;;;;;;;37.49;16.45;99302.34;4423250;32;34926;-82
2022/06/30 11:05:26;;;;;;;7.87;2.55;;;;;;;38.58;16.41;99271.69;4430091;32;31960;-83
2022/06/30 11:08:34;;;;;;;7.78;2.25;;;;;;;38.77;16.16;99277.91;4442320;32;33567;-83
2022/06/30 11:11:53;;;;;;;5.55;2.30;;;;;;;38.78;16.16;99281.59;4448997;32;32370;-82
2022/06/30 11:14:56;;;;;;;9.93;2.15;;;;;;;38.83;15.28;99261.94;4465649;32;34622;-83
2022/06/30 11:21:22;;;;;;;9.32;2.55;;;;;;;38.80;15.65;99264.78;4371054;32;33770;-80
2022/06/30 11:24:11;;;;;;;7.15;2.42;;;;;;;39.07;15.90;99262.34;4441788;32;33588;-84
2022/06/30 11:30:02;;;;;;;8.90;2.72;;;;;;;38.63;15.93;99260.69;4463800;32;34723;-82
2022/06/30 11:33:24;;;;;;;8.77;2.40;;;;;;;38.80;16.14;99248.41;4451004;32;32568;-84
2022/06/30 11:36:24;;;;;;;7.50;2.60;;;;;;;39.23;16.45;99251.25;4453533;32;32622;-84
2022/06/30 11:39:28;;;;;;;7.43;2.50;;;;;;;39.04;16.21;99243.06;4457746;32;34365;-84
2022/06/30 11:42:08;;;;;;;4.95;2.40;;;;;;;38.84;15.97;99245.53;4460493;32;33421;-85
2022/06/30 11:44:38;;;;;;;4.72;2.03;;;;;;;38.80;16.03;99241.84;4473540;32;33802;-85
2022/06/30 11:47:12;;;;;;;5.07;2.08;;;;;;;38.96;15.04;99236.50;4460314;32;34943;-82
2022/06/30 11:49:51;;;;;;;6.28;1.98;;;;;;;38.99;15.02;99224.22;4451136;32;107015;-83
2022/06/30 11:53:25;;;;;;;6.62;2.20;;;;;;;38.96;14.73;99241.44;4464483;32;34888;-83
2022/06/30 11:57:00;;;;;;;8.48;4.62;;;;;;;39.30;14.83;99230.31;4379542;32;32828;-83
2022/06/30 12:00:27;;;;;;;7.60;2.97;;;;;;;39.54;15.31;99222.91;4384036;32;35018;-82
2022/06/30 12:02:57;;;;;;;6.45;2.65;;;;;;;39.30;14.94;99233.19;4392427;32;35327;-83
2022/06/30 12:05:30;;;;;;;4.97;2.10;;;;;;;39.48;14.36;99219.62;4416618;32;33345;-83
2022/06/30 12:07:58;;;;;;;7.07;2.10;;;;;;;39.54;14.02;99225.78;4453054;32;31848;-82
2022/06/30 12:10:28;;;;;;;6.10;2.03;;;;;;;39.40;13.40;99220.88;4453080;32;33749;-82
2022/06/30 12:12:58;;;;;;;4.12;2.25;;;;;;;39.69;13.78;99218.72;4453129;32;34127;-82
2022/06/30 12:15:32;;;;;;;5.68;2.40;;;;;;;39.24;14.18;99229.91;4440361;32;33366;-83
2022/06/30 12:18:06;;;;;;;7.28;2.15;;;;;;;39.48;14.39;99229.06;4453092;32;33264;-81
2022/06/30 12:20:36;;;;;;;7.22;2.17;;;;;;;39.60;14.60;99212.62;4452666;32;32918;-81
2022/06/30 12:23:05;;;;;;;4.43;2.30;;;;;;;39.49;14.08;99202.00;4452897;32;35408;-82
2022/06/30 12:25:39;;;;;;;4.62;2.10;;;;;;;39.55;14.14;99211.00;4452955;32;34000;-84
2022/06/30 12:28:16;;;;;;;4.05;2.12;;;;;;;39.69;14.31;99205.19;4467961;32;33151;-82
2022/06/30 12:30:46;;;;;;;6.95;2.12;;;;;;;39.83;14.82;99213.72;4455747;32;33240;-84
2022/06/30 12:33:14;;;;;;;6.03;2.50;;;;;;;39.53;13.45;99210.59;4455492;32;33356;-83
2022/06/30 12:35:47;;;;;;;4.90;2.22;;;;;;;39.62;13.89;99198.66;4455641;32;34005;-84
2022/06/30 12:38:19;;;;;;;4.82;2.15;;;;;;;39.83;14.18;99190.75;4468459;32;33146;-82
2022/06/30 12:40:48;;;;;;;7.62;2.03;;;;;;;39.66;14.06;99188.78;4455840;32;32218;-83
2022/06/30 12:43:19;;;;;;;8.02;2.30;;;;;;;39.76;14.20;99184.22;4455367;32;34368;-82
2022/06/30 12:45:58;;;;;;;6.28;2.40;;;;;;;39.74;14.47;99201.06;4455649;32;34635;-83
2022/06/30 12:48:45;;;;;;;4.82;2.42;;;;;;;39.95;14.39;99195.22;4468451;32;34259;-83
2022/06/30 12:51:38;;;;;;;8.43;2.42;;;;;;;39.78;14.25;99191.19;4455467;32;33298;-83
2022/06/30 12:54:12;;;;;;;6.18;2.00;;;;;;;39.95;14.96;99192.34;4456255;32;32971;-83
2022/06/30 12:56:41;;;;;;;5.22;2.40;;;;;;;39.85;15.08;99190.31;4456153;32;34717;-84
2022/06/30 12:59:12;;;;;;;9.77;2.70;;;;;;;39.89;15.15;99182.50;4455952;32;32090;-84
2022/06/30 13:01:47;;;;;;;4.53;2.30;;;;;;;39.77;15.15;99188.72;4469577;32;33516;-84
2022/06/30 13:04:15;;;;;;;5.87;2.35;;;;;;;39.73;15.31;99190.78;4456149;32;35266;-83
2022/06/30 13:06:45;;;;;;;4.97;2.40;;;;;;;39.63;15.09;99183.06;4468853;32;35279;-83
2022/06/30 13:09:15;;;;;;;9.20;2.95;;;;;;;39.62;15.33;99172.81;4455342;32;32691;-83
2022/06/30 13:11:49;;;;;;;5.18;2.40;;;;;;;39.17;15.56;99186.88;4457349;32;34088;-82
2022/06/30 13:14:19;;;;;;;6.85;2.50;;;;;;;38.99;15.76;99181.16;4439433;32;34084;-82
2022/06/30 13:16:49;;;;;;;6.87;3.00;;;;;;;39.11;16.14;99183.59;4451980;32;34007;-83
2022/06/30 13:19:17;;;;;;;6.22;2.50;;;;;;;39.31;16.29;99177.41;4439432;32;34145;-84
2022/06/30 13:21:52;;;;;;;7.53;2.75;;;;;;;39.32;16.18;99179.03;4439420;32;32444;-83